Data for 02/12/2013

Time Sea-Level Adjusted Pressure Absolute Pressure Temperature Relative Humidity Dew Point   
(mb) (inHg) (mb) (inHg) (C) (F) (%) (C) (F)
00:05 1018 30.06 847 25.01 -6.9 19.6 73 -10.9 12.3
00:10 1018 30.06 847 25.01 -6.9 19.7 72 -11.1 12.1
00:15 1018 30.06 847 25.01 -6.9 19.6 73 -11 12.2
00:20 1018 30.06 847 25.01 -6.8 19.8 72 -11 12.2
00:25 1018 30.06 847 25.01 -6.6 20.2 70 -11.1 12
00:30 1018 30.06 847 25.01 -6.5 20.3 70 -11.1 12.1
00:35 1018 30.06 848 25.04 -6.5 20.4 69 -11.3 11.7
00:40 1018 30.06 847 25.01 -6.3 20.7 70 -11 12.3
00:45 1018 30.06 847 25.01 -6.2 20.9 69 -10.9 12.3
00:50 1018 30.06 847 25.01 -6 21.2 69 -10.8 12.6
00:55 1018 30.06 847 25.01 -6.1 21 68 -11 12.1
01:00 1018 30.06 847 25.01 -6.2 20.9 69 -11 12.2
01:05 1018 30.06 848 25.04 -6.1 20.9 69 -10.9 12.3
01:10 1018 30.06 848 25.04 -6.1 20.9 69 -10.9 12.4
01:15 1018 30.06 848 25.04 -6.1 21 69 -10.9 12.3
01:20 1018 30.06 848 25.04 -6.1 21 69 -10.9 12.4
01:25 1018 30.06 848 25.04 -6.2 20.9 70 -10.8 12.5
01:30 1018 30.06 847 25.01 -6.3 20.7 70 -10.9 12.4
01:35 1018 30.06 847 25.01 -6.3 20.7 71 -10.8 12.6
01:40 1018 30.06 847 25.01 -6.5 20.4 72 -10.7 12.7
01:45 1018 30.06 847 25.01 -6.5 20.3 70 -11 12.1
01:50 1018 30.06 847 25.01 -6.5 20.4 70 -11.1 12
01:55 1018 30.06 847 25.01 -6.5 20.2 70 -11.2 11.9
02:00 1018 30.06 847 25.01 -6.7 20 71 -11.1 12
02:05 1018 30.06 847 25.01 -6.9 19.6 70 -11.5 11.3
02:10 1018 30.06 847 25.01 -6.7 19.9 69 -11.5 11.2
02:15 1018 30.06 847 25.01 -6.8 19.8 70 -11.4 11.5
02:20 1018 30.06 847 25.01 -7.2 19.1 72 -11.3 11.6
02:25 1018 30.06 847 25.01 -7.4 18.7 73 -11.5 11.4
02:30 1018 30.06 847 25.01 -7.7 18.2 74 -11.5 11.4
02:35 1018 30.06 847 25.01 -7.9 17.7 76 -11.5 11.3
02:40 1018 30.06 847 25.01 -7.6 18.3 73 -11.7 10.9
02:45 1018 30.06 848 25.04 -7.5 18.6 72 -11.6 11.1
02:50 1018 30.06 848 25.04 -7.7 18.2 72 -11.9 10.6
02:55 1018 30.06 848 25.04 -7.9 17.8 70 -12.4 9.7
03:00 1019 30.09 848 25.04 -8 17.6 70 -12.5 9.5
03:05 1019 30.09 848 25.04 -7.8 17.9 70 -12.4 9.7
03:10 1019 30.09 848 25.04 -7.9 17.9 70 -12.5 9.5
03:15 1019 30.09 848 25.04 -8 17.5 71 -12.5 9.6
03:20 1019 30.09 848 25.04 -7.9 17.8 70 -12.5 9.4
03:25 1019 30.09 848 25.04 -8.1 17.4 71 -12.5 9.5
03:30 1019 30.09 848 25.04 -8 17.6 70 -12.6 9.4
03:35 1019 30.09 848 25.04 -7.8 17.9 70 -12.4 9.6
03:40 1018 30.06 848 25.04 -7.8 18 70 -12.3 9.8
03:45 1019 30.09 848 25.04 -7.8 17.9 71 -12.3 9.9
03:50 1018 30.06 848 25.04 -7.9 17.9 70 -12.3 9.8
03:55 1019 30.09 848 25.04 -8 17.6 72 -12.2 10
04:00 1019 30.09 848 25.04 -8.2 17.2 73 -12.2 10.1
04:05 1019 30.09 848 25.04 -8.1 17.3 73 -12.2 10
04:10 1019 30.09 848 25.04 -7.8 18 72 -12.1 10.2
04:15 1019 30.09 848 25.04 -7.7 18.1 71 -12.1 10.2
04:20 1019 30.09 848 25.04 -7.8 18 70 -12.3 9.9
04:25 1018 30.06 848 25.04 -8 17.5 73 -12 10.4
04:30 1018 30.06 848 25.04 -8.4 16.8 75 -12.1 10.3
04:35 1018 30.06 848 25.04 -8.3 17.1 73 -12.3 9.8
04:40 1018 30.06 848 25.04 -8.2 17.3 72 -12.3 9.8
04:45 1019 30.09 848 25.04 -8.3 17.1 72 -12.4 9.6
04:50 1019 30.09 848 25.04 -8.3 17 72 -12.5 9.4
04:55 1019 30.09 848 25.04 -8.1 17.5 71 -12.5 9.5
05:00 1019 30.09 848 25.04 -7.8 17.9 71 -12.3 9.8
05:05 1019 30.09 848 25.04 -8.1 17.5 72 -12.3 9.9
05:10 1019 30.09 848 25.04 -8.4 16.9 75 -12 10.3
05:15 1019 30.09 848 25.04 -8.3 17.1 74 -12.2 10
05:20 1019 30.09 848 25.04 -8.3 17 74 -12.1 10.2
05:25 1019 30.09 848 25.04 -8.1 17.5 72 -12.3 9.9
05:30 1019 30.09 848 25.04 -8.1 17.5 73 -12 10.3
05:35 1019 30.09 848 25.04 -8.5 16.6 75 -12.2 10
05:40 1019 30.09 848 25.04 -8.6 16.6 75 -12.3 9.9
05:45 1019 30.09 848 25.04 -8.7 16.3 76 -12.2 10
05:50 1019 30.09 848 25.04 -8.7 16.4 77 -12 10.3
05:55 1019 30.09 848 25.04 -8.5 16.7 76 -12 10.5
06:00 1019 30.09 848 25.04 -8.4 16.8 75 -12.1 10.2
06:05 1019 30.09 848 25.04 -8.4 16.9 75 -12.1 10.2
06:10 1019 30.09 848 25.04 -7.7 18.2 72 -11.8 10.7
06:15 1019 30.09 848 25.04 -7.1 19.2 72 -11.4 11.5
06:20 1019 30.09 848 25.04 -6.8 19.7 71 -11.2 11.9
06:25 1019 30.09 848 25.04 -6.8 19.7 73 -10.9 12.5
06:30 1019 30.09 848 25.04 -6.6 20.1 71 -11.1 12
06:35 1019 30.09 848 25.04 -6.1 21 70 -10.8 12.5
06:40 1019 30.09 848 25.04 -6.1 21.1 70 -10.6 12.9
06:45 1019 30.09 848 25.04 -5.9 21.4 67 -11 12.2
06:50 1019 30.09 848 25.04 -6.8 19.7 69 -11.6 11.1
06:55 1019 30.09 848 25.04 -7.6 18.4 70 -12.1 10.2
07:00 1019 30.09 848 25.04 -7.4 18.8 69 -12 10.3
07:05 1019 30.09 848 25.04 -7 19.3 68 -12 10.4
07:10 1019 30.09 848 25.04 -6.6 20.1 67 -11.8 10.7
07:15 1019 30.09 848 25.04 -6.3 20.7 66 -11.7 11
07:20 1019 30.09 848 25.04 -6.1 21.1 66 -11.5 11.3
07:25 1019 30.09 848 25.04 -6.2 20.8 66 -11.5 11.2
07:30 1019 30.09 848 25.04 -6.3 20.6 66 -11.6 11
07:35 1019 30.09 848 25.04 -6.3 20.7 68 -11.3 11.6
07:40 1019 30.09 848 25.04 -6 21.3 67 -11.1 12
07:45 1019 30.09 848 25.04 -5.8 21.6 65 -11.3 11.6
07:50 1019 30.09 849 25.07 -5.1 22.7 61 -11.5 11.4
07:55 1019 30.09 849 25.07 -4.8 23.3 62 -11.1 12.1
08:00 1019 30.09 849 25.07 -4.7 23.5 61 -11.2 11.9
08:05 1020 30.12 849 25.07 -4.8 23.3 60 -11.4 11.5
08:10 1020 30.12 849 25.07 -4.9 23.2 61 -11.3 11.6
08:15 1020 30.12 849 25.07 -5 23.1 62 -11.2 11.8
08:20 1020 30.12 849 25.07 -5 23 63 -11.1 12
08:25 1020 30.12 849 25.07 -5 23 63 -11 12.1
08:30 1020 30.12 849 25.07 -5 23.1 63 -10.9 12.4
08:35 1020 30.12 849 25.07 -4.9 23.2 63 -10.9 12.4
08:40 1020 30.12 849 25.07 -4.8 23.3 63 -10.8 12.6
08:45 1020 30.12 849 25.07 -4.7 23.5 63 -10.6 12.8
08:50 1020 30.12 849 25.07 -4.7 23.5 63 -10.7 12.8
08:55 1020 30.12 849 25.07 -4.7 23.6 63 -10.6 12.9
09:00 1020 30.12 849 25.07 -4.6 23.6 63 -10.6 12.9
09:05 1020 30.12 849 25.07 -4.5 23.9 64 -10.3 13.4
09:10 1020 30.12 849 25.07 -4.5 24 63 -10.4 13.3
09:15 1020 30.12 849 25.07 -4.5 23.9 64 -10.3 13.4
09:20 1020 30.12 849 25.07 -4.6 23.7 65 -10.3 13.5
09:25 1020 30.12 849 25.07 -4.7 23.5 65 -10.4 13.3
09:30 1020 30.12 849 25.07 -4.7 23.5 64 -10.4 13.2
09:35 1020 30.12 849 25.07 -4.6 23.7 64 -10.5 13.2
09:40 1020 30.12 849 25.07 -4.7 23.5 65 -10.3 13.4
09:45 1020 30.12 849 25.07 -4.9 23.2 66 -10.2 13.6
09:50 1020 30.12 849 25.07 -5 23 67 -10.3 13.5
09:55 1020 30.12 849 25.07 -5 23 67 -10.2 13.6
10:00 1020 30.12 849 25.07 -4.7 23.6 66 -10.1 13.7
10:05 1020 30.12 849 25.07 -4.4 24.1 65 -10 14
10:10 1020 30.12 849 25.07 -4.3 24.3 65 -10 14.1
10:15 1020 30.12 849 25.07 -4.3 24.3 65 -9.9 14.1
10:20 1020 30.12 849 25.07 -3.9 24.9 65 -9.7 14.6
10:25 1020 30.12 849 25.07 -3.7 25.3 64 -9.6 14.7
10:30 1020 30.12 849 25.07 -3.6 25.5 63 -9.7 14.6
10:35 1020 30.12 849 25.07 -3.4 25.8 63 -9.6 14.7
10:40 1020 30.12 850 25.1 -3.4 25.8 63 -9.6 14.8
10:45 1020 30.12 850 25.1 -3.4 26 62 -9.6 14.8
10:50 1020 30.12 850 25.1 -3.3 26.1 61 -9.8 14.4
10:55 1020 30.12 850 25.1 -3.2 26.3 62 -9.6 14.8
11:00 1021 30.15 850 25.1 -3.2 26.3 60 -9.9 14.2
11:05 1021 30.15 850 25.1 -3.2 26.3 60 -9.8 14.4
11:10 1021 30.15 850 25.1 -3.2 26.3 60 -9.8 14.4
11:15 1021 30.15 850 25.1 -3.1 26.5 61 -9.6 14.7
11:20 1021 30.15 850 25.1 -2.9 26.8 61 -9.4 15
11:25 1021 30.15 850 25.1 -2.9 26.8 62 -9.2 15.4
11:30 1021 30.15 850 25.1 -2.9 26.8 62 -9.2 15.4
11:35 1021 30.15 850 25.1 -3.1 26.4 63 -9.2 15.4
11:40 1021 30.15 850 25.1 -3.1 26.5 63 -9.1 15.6
11:45 1021 30.15 850 25.1 -2.8 26.9 62 -9.2 15.4
11:50 1021 30.15 850 25.1 -2.7 27.2 62 -8.9 16
11:55 1021 30.15 850 25.1 -2.5 27.6 61 -9 15.9
12:00 1020 30.12 850 25.1 -2.3 27.8 63 -8.5 16.7
12:05 1020 30.12 850 25.1 -2.1 28.2 62 -8.4 16.8
12:10 1020 30.12 850 25.1 -2.2 28 62 -8.6 16.6
12:15 1020 30.12 850 25.1 -1.9 28.5 62 -8.3 17
12:20 1020 30.12 850 25.1 -1.9 28.7 60 -8.6 16.5
12:25 1020 30.12 849 25.07 -1.7 28.9 60 -8.6 16.6
12:30 1020 30.12 849 25.07 -1.7 29 59 -8.7 16.4
12:35 1020 30.12 849 25.07 -1.5 29.3 58 -8.7 16.4
12:40 1020 30.12 849 25.07 -1.3 29.7 58 -8.4 16.8
12:45 1020 30.12 849 25.07 -0.8 30.6 54 -9 15.7
12:50 1020 30.12 849 25.07 -0.2 31.6 53 -8.6 16.6
12:55 1020 30.12 849 25.07 0.7 33.2 51 -8.3 17.1
13:00 1020 30.12 849 25.07 1.4 34.6 49 -8.2 17.2
13:05 1020 30.12 849 25.07 1.4 34.5 49 -8.1 17.4
13:10 1020 30.12 849 25.07 1.2 34.1 52 -7.7 18.2
13:15 1020 30.12 849 25.07 1.6 34.8 49 -8 17.5
13:20 1020 30.12 849 25.07 2 35.7 47 -8.2 17.3
13:25 1020 30.12 849 25.07 1.8 35.3 49 -7.8 17.9
13:30 1020 30.12 849 25.07 1.5 34.8 50 -7.7 18.1
13:35 1020 30.12 849 25.07 1.5 34.6 50 -7.9 17.8
13:40 1020 30.12 849 25.07 1.6 34.9 50 -7.8 18
13:45 1020 30.12 849 25.07 1.8 35.2 49 -7.8 18
13:50 1020 30.12 849 25.07 1.9 35.4 49 -7.7 18.1
13:55 1020 30.12 849 25.07 1.7 35.1 51 -7.4 18.6
14:00 1020 30.12 849 25.07 1.8 35.2 50 -7.6 18.2
14:05 1020 30.12 849 25.07 1.9 35.5 51 -7.3 18.9
14:10 1020 30.12 849 25.07 2.1 35.9 50 -7.3 18.8
14:15 1020 30.12 849 25.07 1.8 35.3 49 -7.8 17.9
14:20 1020 30.12 849 25.07 2 35.6 49 -7.7 18.1
14:25 1020 30.12 849 25.07 2 35.7 50 -7.4 18.7
14:30 1020 30.12 849 25.07 2.2 35.9 51 -6.9 19.5
14:35 1020 30.12 849 25.07 2.4 36.3 50 -7.1 19.3
14:40 1020 30.12 849 25.07 2.6 36.6 51 -6.6 20.1
14:45 1020 30.12 849 25.07 2.5 36.6 49 -7.1 19.3
14:50 1020 30.12 849 25.07 2.5 36.4 49 -7.3 18.9
14:55 1020 30.12 849 25.07 2.6 36.7 49 -7.2 19.1
15:00 1019 30.09 849 25.07 2.7 36.8 50 -6.8 19.8
15:05 1019 30.09 849 25.07 2.7 36.8 48 -7.3 18.9
15:10 1019 30.09 849 25.07 2.8 37 47 -7.5 18.6
15:15 1019 30.09 849 25.07 3.2 37.7 47 -7.2 19
15:20 1019 30.09 848 25.04 3.4 38.1 46 -7.1 19.1
15:25 1019 30.09 848 25.04 3.3 37.9 47 -7.1 19.2
15:30 1019 30.09 848 25.04 3.1 37.5 47 -7.2 19
15:35 1019 30.09 848 25.04 3.3 37.9 46 -7.4 18.8
15:40 1019 30.09 848 25.04 3.5 38.3 45 -7.3 18.9
15:45 1019 30.09 848 25.04 3.4 38.1 47 -6.9 19.6
15:50 1019 30.09 848 25.04 3.4 38.2 46 -7 19.3
15:55 1019 30.09 848 25.04 3.7 38.6 47 -6.6 20.1
16:00 1019 30.09 848 25.04 3.8 38.8 45 -7 19.4
16:05 1019 30.09 848 25.04 3.3 38 52 -5.7 21.7
16:10 1019 30.09 848 25.04 2.8 37 51 -6.4 20.5
16:15 1019 30.09 848 25.04 3 37.4 49 -6.6 20.1
16:20 1019 30.09 848 25.04 3.4 38.1 48 -6.5 20.3
16:25 1019 30.09 848 25.04 3.5 38.4 46 -7.1 19.2
16:30 1019 30.09 848 25.04 3.7 38.6 48 -6.4 20.5
16:35 1019 30.09 848 25.04 3.3 38 50 -6.1 21
16:40 1019 30.09 848 25.04 3.4 38.1 47 -7 19.4
16:45 1019 30.09 848 25.04 3.3 37.9 48 -6.8 19.8
16:50 1019 30.09 848 25.04 3.1 37.6 48 -6.9 19.6
16:55 1019 30.09 848 25.04 3.2 37.7 49 -6.4 20.5
17:00 1019 30.09 848 25.04 3.1 37.7 49 -6.6 20.2
17:05 1019 30.09 848 25.04 2.9 37.3 49 -6.8 19.8
17:10 1019 30.09 848 25.04 2.6 36.8 50 -6.6 20
17:15 1019 30.09 848 25.04 2.4 36.4 50 -6.9 19.6
17:20 1019 30.09 848 25.04 2.3 36.1 51 -6.8 19.8
17:25 1019 30.09 848 25.04 2.1 35.8 51 -7 19.4
17:30 1019 30.09 848 25.04 2 35.6 52 -6.8 19.8
17:35 1019 30.09 848 25.04 2 35.5 53 -6.6 20.1
17:40 1019 30.09 848 25.04 2 35.6 55 -6.2 20.8
17:45 1019 30.09 848 25.04 1.9 35.4 55 -6.3 20.7
17:50 1019 30.09 848 25.04 1.8 35.3 55 -6.3 20.7
17:55 1019 30.09 848 25.04 1.8 35.2 55 -6.3 20.7
18:00 1019 30.09 848 25.04 1.7 35.1 54 -6.5 20.3
18:05 1019 30.09 848 25.04 1.7 35.1 55 -6.4 20.5
18:10 1019 30.09 848 25.04 1.7 35 55 -6.3 20.6
18:15 1019 30.09 848 25.04 1.6 35 56 -6.2 20.8
18:20 1019 30.09 848 25.04 1.5 34.7 55 -6.5 20.4
18:25 1019 30.09 848 25.04 1.4 34.5 55 -6.6 20.1
18:30 1019 30.09 848 25.04 1.4 34.5 56 -6.4 20.5
18:35 1019 30.09 848 25.04 1.3 34.3 58 -6.1 21.1
18:40 1019 30.09 848 25.04 1 33.8 58 -6.2 20.8
18:45 1019 30.09 848 25.04 0.9 33.7 59 -6.3 20.7
18:50 1019 30.09 848 25.04 1 33.7 59 -6.2 20.9
18:55 1019 30.09 848 25.04 0.9 33.5 60 -6 21.1
19:00 1019 30.09 848 25.04 0.9 33.6 60 -6.1 21.1
19:05 1019 30.09 848 25.04 0.8 33.5 60 -6.2 20.9
19:10 1019 30.09 848 25.04 0.8 33.5 60 -6 21.2
19:15 1019 30.09 848 25.04 0.8 33.5 61 -5.8 21.5
19:20 1019 30.09 848 25.04 1 33.9 61 -5.8 21.6
19:25 1019 30.09 848 25.04 1.2 34.2 61 -5.5 22.2
19:30 1019 30.09 848 25.04 1.6 34.9 57 -5.9 21.3
19:35 1019 30.09 848 25.04 2.1 35.7 56 -5.7 21.7
19:40 1019 30.09 848 25.04 2.2 36 56 -5.8 21.6
19:45 1019 30.09 848 25.04 2.2 36 56 -5.7 21.8
19:50 1019 30.09 848 25.04 2.3 36.1 57 -5.4 22.3
19:55 1019 30.09 848 25.04 2.2 35.9 57 -5.5 22
20:00 1019 30.09 848 25.04 2.2 35.9 57 -5.4 22.3
20:05 1019 30.09 848 25.04 2.1 35.7 58 -5.3 22.5
20:10 1019 30.09 848 25.04 2 35.6 59 -5.2 22.6
20:15 1019 30.09 848 25.04 1.9 35.4 59 -5.3 22.5
20:20 1019 30.09 848 25.04 1.9 35.4 59 -5.3 22.5
20:25 1019 30.09 848 25.04 1.9 35.4 60 -5.1 22.8
20:30 1019 30.09 848 25.04 1.9 35.3 59 -5.4 22.4
20:35 1019 30.09 848 25.04 1.9 35.4 59 -5.3 22.4
20:40 1019 30.09 848 25.04 2 35.6 57 -5.7 21.8
20:45 1019 30.09 848 25.04 2.2 35.9 55 -6 21.2
20:50 1019 30.09 848 25.04 2.3 36.2 54 -6 21.2
20:55 1019 30.09 848 25.04 2.3 36.1 56 -5.7 21.8
21:00 1019 30.09 848 25.04 2.2 35.9 57 -5.5 22.1
21:05 1019 30.09 848 25.04 2 35.6 58 -5.5 22
21:10 1019 30.09 848 25.04 2 35.7 56 -5.7 21.7
21:15 1019 30.09 848 25.04 2.1 35.8 56 -5.8 21.6
21:20 1019 30.09 848 25.04 2.2 35.9 56 -5.7 21.7
21:25 1019 30.09 848 25.04 2.2 35.9 56 -5.6 21.8
21:30 1019 30.09 848 25.04 2.1 35.8 57 -5.6 22
21:35 1019 30.09 848 25.04 2.1 35.8 56 -5.6 21.9
21:40 1019 30.09 848 25.04 2.1 35.8 58 -5.3 22.4
21:45 1018 30.06 848 25.04 2 35.6 57 -5.5 22
21:50 1018 30.06 848 25.04 2 35.7 57 -5.6 22
21:55 1018 30.06 848 25.04 2.1 35.8 57 -5.5 22.1
22:00 1018 30.06 848 25.04 2.1 35.8 57 -5.4 22.2
22:05 1019 30.09 848 25.04 2.1 35.8 58 -5.4 22.3
22:10 1019 30.09 848 25.04 2.1 35.7 59 -5.2 22.6
22:15 1019 30.09 848 25.04 1.9 35.4 59 -5.3 22.5
22:20 1019 30.09 848 25.04 1.9 35.5 58 -5.4 22.2
22:25 1019 30.09 848 25.04 2 35.7 58 -5.4 22.3
22:30 1019 30.09 848 25.04 2 35.7 58 -5.4 22.2
22:35 1019 30.09 848 25.04 2 35.7 57 -5.6 22
22:40 1019 30.09 848 25.04 2 35.6 58 -5.5 22.1
22:45 1019 30.09 848 25.04 2 35.5 58 -5.4 22.4
22:50 1019 30.09 848 25.04 1.9 35.4 58 -5.6 22
22:55 1019 30.09 848 25.04 1.9 35.4 59 -5.4 22.3
23:00 1019 30.09 848 25.04 1.8 35.3 58 -5.5 22.1
23:05 1019 30.09 848 25.04 1.8 35.2 59 -5.4 22.2
23:10 1019 30.09 848 25.04 1.7 35.1 58 -5.7 21.8
23:15 1019 30.09 848 25.04 1.7 35 58 -5.7 21.7
23:20 1019 30.09 848 25.04 1.7 35 58 -5.6 21.9
23:25 1019 30.09 848 25.04 1.7 35 58 -5.8 21.6
23:30 1019 30.09 848 25.04 1.7 35 57 -6 21.2
23:35 1018 30.06 848 25.04 1.8 35.2 56 -6 21.2
23:40 1018 30.06 848 25.04 1.9 35.4 57 -5.8 21.5
23:45 1018 30.06 847 25.01 1.8 35.2 57 -5.8 21.6
23:50 1018 30.06 847 25.01 1.6 35 57 -5.9 21.4
23:55 1018 30.06 847 25.01 1.7 35 57 -6 21.2
24:00 1018 30.06 847 25.01 1.6 35 57 -6 21.2